Time;durP1;ratioP1;P1;durP2;ratioP2;P2;SDS_P1;SDS_P2;PMS_P1;PMS_P2;Temp;Humidity;BMP_temperature;BMP_pressure;BME280_temperature;BME280_humidity;BME280_pressure;Samples;Min_cycle;Max_cycle;Signal;HPM_P1;HPM_P2
2022/01/31 00:01:53;;;;;;;5.35;2.33;;;31.80;94.30;;;;;;5063886;28;20046;-75
2022/01/31 00:04:21;;;;;;;6.03;2.78;;;31.20;94.90;;;;;;5062049;28;20097;-75
2022/01/31 00:06:48;;;;;;;4.32;2.33;;;30.70;95.70;;;;;;5062312;28;20123;-75
2022/01/31 00:09:21;;;;;;;5.10;2.38;;;30.40;95.80;;;;;;5062392;28;20115;-75
2022/01/31 00:11:57;;;;;;;6.10;2.88;;;30.20;96.10;;;;;;5059863;28;20097;-74
2022/01/31 00:14:39;;;;;;;8.25;3.72;;;30.80;95.50;;;;;;5063604;28;20063;-76
2022/01/31 00:17:07;;;;;;;3.78;2.58;;;30.70;95.50;;;;;;5059524;28;20036;-74
2022/01/31 00:19:37;;;;;;;5.35;2.60;;;30.80;95.60;;;;;;5052641;28;20028;-75
2022/01/31 00:22:07;;;;;;;5.45;2.22;;;31.60;95.50;;;;;;5061954;28;20075;-74
2022/01/31 00:24:35;;;;;;;4.47;2.80;;;32.60;94.20;;;;;;5056327;28;20028;-75
2022/01/31 00:27:04;;;;;;;6.78;2.83;;;33.00;93.30;;;;;;5056012;28;20058;-76
2022/01/31 00:29:32;;;;;;;6.03;3.22;;;32.80;92.80;;;;;;5057002;28;20097;-75
2022/01/31 00:31:59;;;;;;;5.32;2.83;;;32.60;93.10;;;;;;5061976;28;20036;-74
2022/01/31 00:34:27;;;;;;;5.10;3.08;;;32.30;93.40;;;;;;5055617;28;20028;-74
2022/01/31 00:36:54;;;;;;;3.72;2.90;;;32.00;93.50;;;;;;5059614;28;20036;-74
2022/01/31 00:39:21;;;;;;;4.85;3.28;;;31.60;93.60;;;;;;5060860;28;20052;-74
2022/01/31 00:41:49;;;;;;;5.85;3.10;;;31.20;94.60;;;;;;4962157;28;2833482;-75
2022/01/31 00:46:59;;;;;;;3.85;2.95;;;31.20;94.20;;;;;;5061409;28;20052;-75
2022/01/31 00:49:37;;;;;;;3.63;2.70;;;31.10;94.40;;;;;;5057615;28;20043;-75
2022/01/31 00:52:05;;;;;;;4.05;2.50;;;30.80;94.40;;;;;;5064127;28;20040;-76
2022/01/31 00:54:33;;;;;;;5.85;3.58;;;30.60;94.60;;;;;;5062116;28;20021;-75
2022/01/31 00:57:00;;;;;;;6.85;3.03;;;30.40;95.30;;;;;;5054565;28;20016;-76
2022/01/31 00:59:27;;;;;;;5.82;3.50;;;30.60;95.50;;;;;;5055978;28;20108;-74
2022/01/31 01:01:55;;;;;;;5.47;2.97;;;31.00;95.30;;;;;;5056934;28;20029;-75
2022/01/31 01:04:22;;;;;;;4.32;2.63;;;31.70;94.70;;;;;;5057491;28;20498;-75
2022/01/31 01:06:49;;;;;;;4.78;3.25;;;32.30;93.80;;;;;;5063703;28;20033;-75
2022/01/31 01:09:17;;;;;;;4.13;2.85;;;32.60;92.90;;;;;;5057426;28;20029;-75
2022/01/31 01:11:44;;;;;;;4.15;2.75;;;32.50;92.90;;;;;;5054669;28;20058;-74
2022/01/31 01:14:12;;;;;;;4.38;2.90;;;32.30;92.90;;;;;;5053221;28;20052;-74
2022/01/31 01:16:40;;;;;;;7.50;3.42;;;31.90;92.90;;;;;;5053145;28;20116;-75
2022/01/31 01:19:07;;;;;;;6.50;3.17;;;31.50;93.90;;;;;;5065920;28;20066;-74
2022/01/31 01:21:34;;;;;;;3.88;2.92;;;31.10;94.10;;;;;;5066834;28;20025;-74
2022/01/31 01:24:02;;;;;;;5.00;2.80;;;31.00;94.00;;;;;;5059843;28;20032;-75
2022/01/31 01:26:29;;;;;;;3.55;2.72;;;31.50;94.10;;;;;;5055575;28;20031;-76
2022/01/31 01:28:56;;;;;;;5.75;3.03;;;31.90;93.70;;;;;;5066020;28;20475;-75
2022/01/31 01:31:24;;;;;;;5.93;3.40;;;32.20;93.80;;;;;;5067216;28;20097;-76
2022/01/31 01:33:52;;;;;;;5.53;2.75;;;32.40;93.20;;;;;;5066920;28;20317;-75
2022/01/31 01:36:21;;;;;;;5.82;3.70;;;32.00;93.10;;;;;;5057433;28;20028;-74
2022/01/31 01:38:48;;;;;;;5.35;3.33;;;31.70;94.00;;;;;;5063905;28;20017;-73
2022/01/31 01:41:15;;;;;;;5.90;3.70;;;31.90;93.70;;;;;;5051651;28;20464;-74
2022/01/31 01:43:43;;;;;;;5.57;3.13;;;31.90;93.40;;;;;;5054784;28;20028;-75
2022/01/31 01:46:11;;;;;;;6.63;3.55;;;31.80;93.70;;;;;;5051367;28;20750;-75
2022/01/31 01:48:38;;;;;;;5.47;3.00;;;32.40;92.80;;;;;;5055659;28;20032;-74
2022/01/31 01:51:06;;;;;;;5.10;2.97;;;32.20;93.30;;;;;;5055341;28;20028;-75
2022/01/31 01:53:34;;;;;;;5.85;3.88;;;31.80;93.60;;;;;;5061948;28;20040;-77
2022/01/31 01:56:02;;;;;;;6.18;3.88;;;31.70;93.40;;;;;;5064873;28;20127;-76
2022/01/31 01:58:38;;;;;;;8.77;4.03;;;32.30;93.70;;;;;;5056907;28;20056;-76
2022/01/31 02:01:06;;;;;;;5.75;2.75;;;33.10;93.00;;;;;;5061244;28;20459;-75
2022/01/31 02:03:35;;;;;;;5.85;4.60;;;33.80;91.40;;;;;;5050462;28;20024;-78
2022/01/31 02:06:03;;;;;;;6.28;3.85;;;33.80;91.30;;;;;;5052372;28;20096;-79
2022/01/31 02:08:50;;;;;;;5.75;3.65;;;33.20;91.80;;;;;;5049940;28;20472;-77
2022/01/31 02:11:20;;;;;;;4.22;3.38;;;32.70;92.10;;;;;;5055617;28;20040;-76
2022/01/31 02:13:47;;;;;;;7.95;4.15;;;32.70;92.50;;;;;;5053440;28;21529;-75
2022/01/31 02:16:17;;;;;;;5.78;4.47;;;33.30;91.90;;;;;;5052952;28;20118;-75
2022/01/31 02:18:49;;;;;;;5.50;4.00;;;33.50;91.70;;;;;;5054616;28;20497;-75
2022/01/31 02:21:18;;;;;;;5.80;4.25;;;33.20;91.40;;;;;;5055088;28;20399;-75
2022/01/31 02:23:46;;;;;;;6.70;3.25;;;33.00;91.70;;;;;;5049719;28;20379;-75
2022/01/31 02:26:13;;;;;;;5.60;3.65;;;33.10;91.40;;;;;;5049491;28;20495;-78
2022/01/31 02:28:42;;;;;;;7.97;4.45;;;33.30;91.00;;;;;;5052738;28;20471;-76
2022/01/31 02:31:09;;;;;;;5.15;3.10;;;33.40;91.40;;;;;;5056692;28;20044;-77
2022/01/31 02:33:36;;;;;;;8.35;4.47;;;34.10;91.70;;;;;;5052389;28;20029;-76
2022/01/31 02:36:05;;;;;;;4.55;2.92;;;34.50;90.00;;;;;;5051120;28;20029;-75
2022/01/31 02:38:33;;;;;;;9.38;4.28;;;34.80;90.40;;;;;;5051448;28;20020;-77
2022/01/31 02:41:01;;;;;;;5.60;4.07;;;34.90;88.90;;;;;;5053295;28;20052;-76
2022/01/31 02:43:34;;;;;;;5.53;3.42;;;35.20;89.70;;;;;;5055521;28;20483;-76
2022/01/31 02:46:02;;;;;;;7.70;4.68;;;35.30;87.80;;;;;;5051799;28;20028;-76
2022/01/31 02:48:33;;;;;;;5.47;4.88;;;35.50;88.70;;;;;;5051316;28;20054;-77
2022/01/31 02:51:00;;;;;;;7.85;4.70;;;35.20;88.50;;;;;;5053029;28;20029;-76
2022/01/31 02:53:31;;;;;;;5.10;2.95;;;34.60;88.40;;;;;;5055135;28;20032;-78
2022/01/31 02:56:01;;;;;;;3.55;2.85;;;34.40;89.00;;;;;;5050053;28;20029;-77
2022/01/31 02:58:30;;;;;;;6.82;3.38;;;34.70;86.80;;;;;;5054931;28;20071;-82
2022/01/31 03:00:58;;;;;;;6.15;3.83;;;35.20;87.10;;;;;;5041147;28;20040;-77
2022/01/31 03:03:26;;;;;;;6.13;3.60;;;35.40;88.10;;;;;;5054002;28;20032;-77
2022/01/31 03:05:54;;;;;;;7.25;3.88;;;35.10;88.10;;;;;;5050628;28;20036;-77
2022/01/31 03:08:24;;;;;;;8.43;4.10;;;34.30;86.90;;;;;;5054554;28;20029;-77
2022/01/31 03:10:53;;;;;;;6.93;3.85;;;34.20;87.30;;;;;;5053168;28;20467;-78
2022/01/31 03:13:20;;;;;;;6.47;3.20;;;34.30;88.40;;;;;;5046826;28;20029;-78
2022/01/31 03:15:49;;;;;;;4.78;3.10;;;34.50;87.60;;;;;;5051191;28;20025;-82
2022/01/31 03:18:17;;;;;;;5.47;3.78;;;35.00;86.60;;;;;;5049168;28;20104;-74
2022/01/31 03:20:44;;;;;;;5.68;4.80;;;34.90;85.90;;;;;;5055308;28;20468;-75
2022/01/31 03:23:13;;;;;;;6.32;3.83;;;34.70;87.30;;;;;;5050180;28;20036;-75
2022/01/31 03:25:40;;;;;;;5.03;3.45;;;34.70;86.80;;;;;;5051844;28;20328;-78
2022/01/31 03:28:07;;;;;;;5.75;3.78;;;34.70;87.10;;;;;;5051096;28;20029;-74
2022/01/31 03:30:34;;;;;;;6.25;4.18;;;35.00;87.00;;;;;;5056264;28;20464;-76
2022/01/31 03:33:02;;;;;;;5.78;4.10;;;35.30;87.30;;;;;;5052697;28;20928;-77
2022/01/31 03:35:29;;;;;;;4.90;3.78;;;35.90;90.40;;;;;;5056817;28;20032;-75
2022/01/31 03:37:57;;;;;;;4.55;4.05;;;36.30;85.60;;;;;;5060185;28;20032;-76
2022/01/31 03:40:24;;;;;;;8.65;4.97;;;36.20;84.50;;;;;;5057540;28;20487;-78
2022/01/31 03:42:52;;;;;;;5.15;4.15;;;36.10;85.20;;;;;;5056655;28;20032;-74
2022/01/31 03:45:19;;;;;;;6.25;4.40;;;36.30;85.30;;;;;;5057949;28;20032;-77
2022/01/31 03:47:47;;;;;;;4.93;4.13;;;36.60;85.40;;;;;;5052455;28;20472;-79
2022/01/31 03:50:17;;;;;;;5.78;4.30;;;36.90;83.50;;;;;;5053042;28;20036;-76
2022/01/31 03:52:46;;;;;;;5.68;4.05;;;37.10;85.00;;;;;;5054128;28;20035;-79
2022/01/31 03:55:14;;;;;;;9.30;4.05;;;36.80;82.20;;;;;;5064047;28;20493;-76
2022/01/31 03:57:41;;;;;;;5.20;3.65;;;36.60;84.00;;;;;;5058210;28;20036;-75
2022/01/31 04:00:11;;;;;;;5.43;3.53;;;36.10;83.60;;;;;;5060225;28;20777;-77
2022/01/31 04:02:39;;;;;;;5.65;3.65;;;35.70;84.20;;;;;;5063035;28;20024;-76
2022/01/31 04:05:07;;;;;;;5.05;3.90;;;35.10;84.20;;;;;;5065056;28;20036;-76
2022/01/31 04:07:34;;;;;;;4.50;3.60;;;34.50;85.50;;;;;;5050263;28;20029;-76
2022/01/31 04:10:03;;;;;;;6.70;3.38;;;34.50;85.50;;;;;;5057170;28;20407;-76
2022/01/31 04:12:31;;;;;;;5.82;3.53;;;34.70;84.70;;;;;;5059966;28;20040;-75
2022/01/31 04:14:58;;;;;;;4.25;3.65;;;34.80;83.30;;;;;;5056317;28;20103;-74
2022/01/31 04:17:26;;;;;;;4.28;2.70;;;34.80;83.70;;;;;;5051295;28;20032;-75
2022/01/31 04:19:53;;;;;;;6.30;3.33;;;35.00;84.10;;;;;;5068757;28;20133;-76
2022/01/31 04:22:23;;;;;;;5.93;3.25;;;35.30;84.90;;;;;;5058345;28;20037;-74
2022/01/31 04:24:55;;;;;;;6.07;3.95;;;35.20;85.70;;;;;;5059727;28;20028;-76
2022/01/31 04:27:27;;;;;;;4.35;3.17;;;35.40;87.40;;;;;;5054586;28;20140;-76
2022/01/31 04:29:54;;;;;;;6.47;3.33;;;35.70;85.80;;;;;;5056603;28;20039;-75
2022/01/31 04:32:22;;;;;;;5.43;3.35;;;36.00;85.40;;;;;;5060488;28;20041;-75
2022/01/31 04:34:49;;;;;;;3.72;2.67;;;36.30;85.10;;;;;;5056943;28;20033;-73
2022/01/31 04:37:16;;;;;;;3.83;2.83;;;36.20;85.30;;;;;;5066371;28;20382;-75
2022/01/31 04:39:44;;;;;;;3.45;1.77;;;36.00;86.40;;;;;;5065818;28;22366;-76
2022/01/31 04:42:11;;;;;;;3.78;1.60;;;35.90;87.30;;;;;;5063145;28;20054;-74
2022/01/31 04:44:38;;;;;;;4.50;2.10;;;35.80;87.20;;;;;;5064412;28;20028;-73
2022/01/31 04:47:06;;;;;;;8.52;3.10;;;35.70;87.60;;;;;;5064997;28;20111;-73
2022/01/31 04:49:35;;;;;;;3.55;2.28;;;35.70;87.40;;;;;;5060441;28;20028;-74
2022/01/31 04:52:03;;;;;;;5.50;2.00;;;35.70;87.50;;;;;;5066942;28;20033;-75
2022/01/31 04:54:30;;;;;;;4.75;1.60;;;35.80;88.40;;;;;;5055482;28;20039;-75
2022/01/31 04:56:57;;;;;;;4.90;1.98;;;35.70;87.60;;;;;;5058285;28;20025;-76
2022/01/31 04:59:25;;;;;;;2.88;1.88;;;35.60;88.20;;;;;;5060689;28;20107;-77
2022/01/31 05:01:52;;;;;;;3.70;1.77;;;35.60;88.50;;;;;;5067665;28;20025;-77
2022/01/31 05:04:20;;;;;;;4.43;2.13;;;35.50;88.90;;;;;;5068676;28;20141;-77
2022/01/31 05:06:48;;;;;;;3.38;1.92;;;35.10;88.80;;;;;;5067560;28;20081;-76
2022/01/31 05:09:16;;;;;;;3.75;2.10;;;35.00;89.20;;;;;;5060350;28;20032;-76
2022/01/31 05:11:43;;;;;;;4.75;2.03;;;34.80;89.80;;;;;;5062746;28;20043;-76
2022/01/31 05:14:11;;;;;;;4.28;1.45;;;34.80;90.00;;;;;;5066005;28;20473;-75
2022/01/31 05:16:38;;;;;;;3.28;1.92;;;34.90;90.30;;;;;;5063144;28;20031;-76
2022/01/31 05:19:05;;;;;;;5.15;2.60;;;35.00;90.00;;;;;;5057707;28;20063;-76
2022/01/31 05:21:33;;;;;;;2.95;1.83;;;35.10;90.10;;;;;;5055002;28;20028;-79
2022/01/31 05:24:00;;;;;;;3.42;1.70;;;35.10;89.30;;;;;;5064876;28;20032;-78
2022/01/31 05:26:27;;;;;;;3.08;1.85;;;35.10;89.70;;;;;;5064040;28;20024;-77
2022/01/31 05:28:55;;;;;;;2.10;1.48;;;35.10;90.00;;;;;;5061383;28;20167;-80
2022/01/31 05:31:22;;;;;;;3.35;1.70;;;34.90;89.80;;;;;;5061795;28;20082;-76
2022/01/31 05:33:50;;;;;;;4.85;1.63;;;34.80;90.50;;;;;;5068318;28;20024;-80
2022/01/31 05:36:17;;;;;;;2.78;1.23;;;34.80;90.20;;;;;;5056679;28;20098;-80
2022/01/31 05:38:45;;;;;;;3.38;1.73;;;34.80;90.30;;;;;;5057793;28;20089;-85
2022/01/31 05:41:18;;;;;;;5.45;1.77;;;34.60;90.40;;;;;;5058471;28;20064;-80
2022/01/31 05:43:46;;;;;;;2.92;2.20;;;34.20;90.50;;;;;;5066465;28;20025;-78
2022/01/31 05:46:14;;;;;;;2.75;1.50;;;33.70;90.90;;;;;;5070037;28;20092;-77
2022/01/31 05:48:41;;;;;;;2.88;1.52;;;33.60;91.30;;;;;;5060529;28;20025;-79
2022/01/31 05:51:19;;;;;;;3.40;1.83;;;33.50;91.50;;;;;;5057264;28;20048;-79
2022/01/31 05:53:48;;;;;;;5.45;2.22;;;33.20;91.70;;;;;;5061770;28;20024;-83
2022/01/31 05:56:17;;;;;;;3.83;1.50;;;33.10;91.70;;;;;;5069237;28;20119;-78
2022/01/31 05:58:45;;;;;;;4.85;1.60;;;33.10;91.60;;;;;;5069062;28;20103;-85
2022/01/31 06:01:16;;;;;;;3.10;1.85;;;32.90;91.80;;;;;;5056688;28;20116;-80
2022/01/31 06:03:43;;;;;;;4.35;1.70;;;33.10;91.80;;;;;;5067823;28;20020;-79
2022/01/31 06:06:11;;;;;;;4.57;1.58;;;33.00;92.00;;;;;;5062135;28;20029;-81
2022/01/31 06:08:38;;;;;;;3.25;1.80;;;32.80;92.10;;;;;;5066384;28;20033;-81
2022/01/31 06:11:06;;;;;;;4.00;1.55;;;32.60;92.20;;;;;;5069984;28;20043;-78
2022/01/31 06:13:34;;;;;;;4.97;2.17;;;32.50;92.40;;;;;;5062621;28;20032;-77
2022/01/31 06:16:02;;;;;;;4.80;2.05;;;32.50;92.40;;;;;;5062207;28;20037;-77
2022/01/31 06:18:29;;;;;;;2.15;1.77;;;32.70;92.50;;;;;;5065020;28;20035;-77
2022/01/31 06:20:57;;;;;;;4.47;2.45;;;32.90;92.20;;;;;;5058364;28;20025;-76
2022/01/31 06:23:24;;;;;;;3.80;1.92;;;33.00;92.20;;;;;;5073437;28;20379;-80
2022/01/31 06:25:51;;;;;;;4.13;1.58;;;33.10;92.10;;;;;;5069995;28;20113;-83
2022/01/31 06:28:20;;;;;;;2.70;1.67;;;33.20;91.80;;;;;;5070132;28;20044;-80
2022/01/31 06:30:48;;;;;;;6.25;2.25;;;33.00;91.80;;;;;;5063357;28;20437;-82
2022/01/31 06:33:16;;;;;;;3.15;1.50;;;32.80;92.00;;;;;;5067482;28;20024;-78
2022/01/31 06:35:44;;;;;;;5.78;2.42;;;32.70;92.50;;;;;;5062228;28;20033;-78
2022/01/31 06:38:12;;;;;;;2.38;1.38;;;32.80;92.40;;;;;;5057877;28;20130;-83
2022/01/31 06:40:40;;;;;;;6.00;1.63;;;32.80;92.10;;;;;;5062164;28;20028;-81
2022/01/31 06:43:08;;;;;;;4.53;1.73;;;32.70;92.20;;;;;;5062314;28;20809;-83
2022/01/31 06:45:35;;;;;;;4.30;1.65;;;32.60;92.20;;;;;;5054633;28;20024;-80
2022/01/31 06:48:03;;;;;;;2.47;1.70;;;32.60;92.50;;;;;;5051161;28;20029;-81
2022/01/31 06:50:30;;;;;;;2.90;1.55;;;32.50;92.50;;;;;;5060378;28;20039;-76
2022/01/31 06:52:58;;;;;;;2.45;1.80;;;32.40;92.70;;;;;;5054797;28;20029;-87
2022/01/31 06:55:26;;;;;;;2.33;1.55;;;32.30;93.20;;;;;;5065908;28;20403;-81
2022/01/31 06:57:53;;;;;;;3.97;2.20;;;32.10;93.20;;;;;;5059123;28;20121;-79
2022/01/31 07:00:21;;;;;;;3.40;1.55;;;32.00;93.10;;;;;;5062017;28;20078;-81
2022/01/31 07:02:50;;;;;;;2.80;1.77;;;31.90;93.50;;;;;;5062892;28;20058;-80
2022/01/31 07:05:19;;;;;;;3.95;1.95;;;31.90;93.40;;;;;;5055334;28;20472;-81
2022/01/31 07:07:46;;;;;;;3.50;1.98;;;31.80;93.20;;;;;;5056680;28;20043;-82
2022/01/31 07:10:14;;;;;;;4.65;1.58;;;31.70;93.40;;;;;;5058267;28;20093;-79
2022/01/31 07:12:48;;;;;;;3.88;1.67;;;31.80;93.50;;;;;;5068048;28;20089;-80
2022/01/31 07:15:16;;;;;;;3.77;1.50;;;31.70;93.80;;;;;;5070741;28;20099;-80
2022/01/31 07:17:46;;;;;;;3.47;2.03;;;31.50;93.80;;;;;;5070936;28;20025;-77
2022/01/31 07:20:25;;;;;;;2.25;1.70;;;31.30;93.80;;;;;;5066385;28;20036;-78
2022/01/31 07:23:02;;;;;;;3.28;1.50;;;31.20;93.70;;;;;;5065281;28;20032;-79
2022/01/31 07:25:35;;;;;;;1.73;1.15;;;31.00;94.00;;;;;;5063549;28;20055;-79
2022/01/31 07:28:11;;;;;;;2.10;1.50;;;30.70;94.30;;;;;;5067158;28;20048;-80
2022/01/31 07:30:39;;;;;;;2.22;1.30;;;30.50;94.40;;;;;;5069977;28;20109;-78
2022/01/31 07:33:12;;;;;;;3.42;1.63;;;30.30;94.70;;;;;;5066198;28;20029;-78
2022/01/31 07:35:43;;;;;;;2.67;1.40;;;30.10;94.90;;;;;;5069545;28;20025;-79
2022/01/31 07:38:11;;;;;;;4.03;1.73;;;30.00;95.00;;;;;;5071632;28;20086;-79
2022/01/31 07:40:40;;;;;;;1.73;0.98;;;29.90;95.10;;;;;;5069451;28;20050;-79
2022/01/31 07:43:07;;;;;;;3.47;1.10;;;29.70;95.30;;;;;;5059792;28;20025;-77
2022/01/31 07:45:35;;;;;;;1.75;1.02;;;29.70;95.30;;;;;;5061566;28;20024;-79
2022/01/31 07:48:02;;;;;;;2.60;1.40;;;29.70;95.10;;;;;;5062174;28;20044;-79
2022/01/31 07:50:31;;;;;;;2.75;1.30;;;29.70;95.10;;;;;;5065609;28;20099;-77
2022/01/31 07:52:59;;;;;;;3.00;1.20;;;29.70;94.90;;;;;;5067971;28;20482;-76
2022/01/31 07:55:27;;;;;;;2.63;1.38;;;29.80;95.00;;;;;;5070514;28;20321;-78
2022/01/31 07:57:54;;;;;;;1.90;1.35;;;29.80;94.90;;;;;;5068745;28;20024;-75
2022/01/31 08:00:21;;;;;;;3.13;1.58;;;29.80;95.00;;;;;;5068750;28;20047;-79
2022/01/31 08:02:49;;;;;;;1.73;0.77;;;29.80;95.10;;;;;;5066429;28;20107;-76
2022/01/31 08:05:21;;;;;;;2.55;1.33;;;29.80;95.20;;;;;;5059092;28;20017;-79
2022/01/31 08:07:49;;;;;;;3.00;1.00;;;29.80;95.10;;;;;;5062823;28;20041;-78
2022/01/31 08:10:17;;;;;;;2.08;1.30;;;29.70;95.20;;;;;;5067407;28;20028;-77
2022/01/31 08:12:44;;;;;;;1.42;1.27;;;29.70;95.20;;;;;;5068741;28;20079;-77
2022/01/31 08:15:21;;;;;;;0.90;0.60;;;29.60;95.10;;;;;;5065446;28;20126;-78
2022/01/31 08:17:48;;;;;;;2.08;1.00;;;29.50;95.30;;;;;;5060776;28;20055;-77
2022/01/31 08:20:16;;;;;;;2.13;1.30;;;29.40;95.40;;;;;;5061107;28;20025;-78
2022/01/31 08:22:43;;;;;;;1.50;0.73;;;29.30;95.70;;;;;;5066450;28;20021;-76
2022/01/31 08:25:14;;;;;;;2.25;1.08;;;29.30;95.70;;;;;;5055791;28;20504;-78
2022/01/31 08:27:48;;;;;;;2.90;1.00;;;29.20;95.80;;;;;;5058653;28;20074;-76
2022/01/31 08:30:22;;;;;;;1.58;0.93;;;29.20;95.90;;;;;;5062771;28;20082;-77
2022/01/31 08:32:58;;;;;;;2.10;0.93;;;29.10;95.90;;;;;;5062012;28;20044;-75
2022/01/31 08:38:10;;;;;;;;;;;29.00;96.30;;;;;;5066785;28;20717;-76
2022/01/31 08:40:39;;;;;;;2.67;1.05;;;28.80;96.50;;;;;;5064792;28;19920;-79
2022/01/31 08:43:07;;;;;;;2.70;0.90;;;28.70;96.40;;;;;;5067388;28;20040;-78
2022/01/31 08:45:38;;;;;;;2.53;0.77;;;28.60;96.50;;;;;;5067536;28;20510;-80
2022/01/31 08:48:05;;;;;;;2.08;1.02;;;28.50;96.70;;;;;;5065656;28;20032;-79
2022/01/31 08:50:33;;;;;;;3.15;1.58;;;28.40;96.90;;;;;;5063092;28;20028;-76
2022/01/31 08:53:00;;;;;;;2.58;1.10;;;28.30;97.10;;;;;;5062632;28;20041;-77
2022/01/31 08:55:27;;;;;;;2.35;1.42;;;28.20;97.20;;;;;;5061074;28;20395;-76
2022/01/31 08:57:57;;;;;;;2.45;0.80;;;28.10;97.30;;;;;;5070531;28;20029;-77
2022/01/31 09:00:33;;;;;;;10.68;1.13;;;28.00;97.50;;;;;;5053901;28;20068;-79
2022/01/31 09:03:40;;;;;;;5.32;1.10;;;27.90;97.80;;;;;;5055380;28;20056;-76
2022/01/31 09:05:50;;;;;;;1.95;0.88;;;27.80;97.80;;;;;;5059782;28;20093;-75
2022/01/31 09:08:17;;;;;;;2.85;1.08;;;27.70;97.90;;;;;;5062198;28;20107;-78
2022/01/31 09:10:44;;;;;;;1.63;1.10;;;27.70;98.20;;;;;;5059477;28;20391;-75
2022/01/31 09:13:14;;;;;;;2.42;1.00;;;27.70;98.40;;;;;;5055606;28;20056;-76
2022/01/31 09:15:42;;;;;;;0.88;0.50;;;27.60;98.50;;;;;;5069479;28;20039;-78
2022/01/31 09:18:09;;;;;;;1.33;0.98;;;27.60;98.60;;;;;;5066219;28;20040;-78
2022/01/31 09:20:37;;;;;;;1.42;0.70;;;27.60;98.60;;;;;;5061656;28;20020;-78
2022/01/31 09:23:06;;;;;;;3.85;0.68;;;27.60;98.70;;;;;;5063539;28;20032;-79
2022/01/31 09:25:34;;;;;;;2.65;0.85;;;27.50;98.80;;;;;;5066238;28;20534;-78
2022/01/31 09:28:02;;;;;;;1.85;0.50;;;27.50;98.80;;;;;;5064133;28;20056;-78
2022/01/31 09:30:30;;;;;;;2.30;0.75;;;27.50;99.00;;;;;;5066797;28;20021;-77
2022/01/31 09:32:58;;;;;;;1.20;0.55;;;27.50;99.10;;;;;;5065160;28;20579;-75
2022/01/31 09:35:26;;;;;;;1.80;0.60;;;27.50;99.10;;;;;;5063131;28;20108;-79
2022/01/31 09:37:53;;;;;;;0.60;0.50;;;27.50;99.20;;;;;;5060092;28;20405;-78
2022/01/31 09:40:23;;;;;;;1.30;0.68;;;27.50;99.20;;;;;;5067628;28;20048;-77
2022/01/31 09:43:58;;;;;;;2.05;0.60;;;27.60;99.30;;;;;;5068644;28;20044;-76
2022/01/31 09:46:15;;;;;;;1.45;0.43;;;27.50;99.30;;;;;;5063188;28;20090;-77
2022/01/31 09:48:44;;;;;;;1.45;0.30;;;27.50;99.40;;;;;;5061257;28;20124;-78
2022/01/31 09:51:11;;;;;;;1.80;0.50;;;27.40;99.60;;;;;;5066539;28;20048;-76
2022/01/31 09:53:42;;;;;;;1.58;0.50;;;27.20;99.90;;;;;;5065342;28;20024;-79
2022/01/31 09:56:12;;;;;;;0.95;0.52;;;27.10;99.90;;;;;;5073061;28;20109;-79
2022/01/31 09:58:41;;;;;;;1.02;0.50;;;27.00;99.90;;;;;;5062392;28;20029;-76
2022/01/31 10:01:33;;;;;;;2.78;1.35;;;26.90;99.90;;;;;;5066311;28;20372;-78
2022/01/31 10:04:10;;;;;;;1.77;1.23;;;26.80;99.90;;;;;;5062135;28;20486;-75
2022/01/31 10:06:40;;;;;;;2.67;0.40;;;26.70;99.90;;;;;;5056453;28;20044;-78
2022/01/31 10:09:19;;;;;;;3.00;0.70;;;26.60;99.90;;;;;;5061998;28;20471;-77
2022/01/31 10:17:37;;;;;;;1.30;0.50;;;26.40;99.90;;;;;;5059976;28;20386;-77
2022/01/31 10:20:09;;;;;;;2.58;0.40;;;26.40;99.90;;;;;;5057255;28;20056;-76
2022/01/31 10:22:43;;;;;;;3.28;1.00;;;26.30;99.90;;;;;;5050916;28;20025;-78
2022/01/31 10:25:16;;;;;;;0.63;0.30;;;26.30;99.90;;;;;;5066415;28;20048;-76
2022/01/31 10:27:50;;;;;;;0.68;0.55;;;26.20;99.90;;;;;;5059579;28;20040;-74
2022/01/31 10:30:27;;;;;;;0.73;0.30;;;26.20;99.90;;;;;;5067170;28;20016;-74
2022/01/31 10:32:56;;;;;;;1.08;0.25;;;26.10;99.90;;;;;;5058073;28;20047;-77
2022/01/31 10:35:44;;;;;;;1.25;0.30;;;26.10;99.90;;;;;;5049351;28;20043;-73
2022/01/31 10:38:37;;;;;;;0.65;0.52;;;26.10;99.90;;;;;;5058711;28;20093;-78
2022/01/31 10:44:58;;;;;;;1.35;0.80;;;26.20;99.90;;;;;;5043961;28;20048;-75
2022/01/31 10:53:03;;;;;;;1.70;0.40;;;26.40;99.90;;;;;;5067710;28;20059;-75
2022/01/31 10:55:30;;;;;;;2.38;0.60;;;26.50;99.90;;;;;;5069734;28;20051;-75
2022/01/31 10:58:07;;;;;;;3.80;0.47;;;26.50;99.90;;;;;;5062120;28;20036;-77
2022/01/31 11:00:40;;;;;;;1.80;0.40;;;26.50;99.90;;;;;;5066748;28;20115;-76
2022/01/31 11:03:32;;;;;;;15.68;0.98;;;26.50;99.90;;;;;;5070016;28;20086;-77
2022/01/31 11:06:09;;;;;;;3.60;0.50;;;26.60;99.90;;;;;;5063573;28;20036;-74
2022/01/31 11:08:38;;;;;;;0.52;0.45;;;26.60;99.90;;;;;;5065629;28;20036;-76
2022/01/31 11:11:06;;;;;;;0.63;0.30;;;26.60;99.90;;;;;;5064130;28;20040;-74
2022/01/31 11:13:35;;;;;;;5.28;1.17;;;26.60;99.90;;;;;;5068446;28;20036;-74
2022/01/31 11:16:04;;;;;;;6.63;0.43;;;26.50;99.90;;;;;;5067798;28;20020;-74
2022/01/31 11:18:34;;;;;;;1.52;0.35;;;26.40;99.90;;;;;;5069097;28;20029;-75
2022/01/31 11:21:07;;;;;;;1.17;0.63;;;26.20;99.90;;;;;;5075150;28;20039;-73
2022/01/31 11:23:41;;;;;;;1.60;0.60;;;26.10;99.90;;;;;;5062247;28;20424;-74
2022/01/31 11:26:12;;;;;;;1.23;0.35;;;26.00;99.90;;;;;;5063585;28;20036;-72
2022/01/31 11:28:47;;;;;;;1.05;0.30;;;26.00;99.90;;;;;;5070401;28;20385;-74
2022/01/31 11:31:18;;;;;;;3.13;0.40;;;25.90;99.90;;;;;;5071044;28;20033;-75
2022/01/31 11:33:46;;;;;;;1.45;0.40;;;25.90;99.90;;;;;;5064792;28;20119;-74
2022/01/31 11:36:14;;;;;;;1.58;0.40;;;25.90;99.90;;;;;;5059458;28;20035;-74
2022/01/31 11:38:43;;;;;;;2.75;0.30;;;25.90;99.90;;;;;;5059774;28;20475;-73
2022/01/31 11:41:11;;;;;;;1.75;0.57;;;25.80;99.90;;;;;;5063626;28;20056;-74
2022/01/31 11:43:38;;;;;;;1.20;0.40;;;25.80;99.90;;;;;;5061525;28;20379;-75
2022/01/31 11:46:08;;;;;;;1.67;0.88;;;25.70;99.90;;;;;;5064288;28;20025;-74
2022/01/31 11:48:38;;;;;;;0.93;0.40;;;25.60;99.90;;;;;;5065807;28;20056;-74
2022/01/31 11:51:05;;;;;;;1.58;0.50;;;25.60;99.90;;;;;;5056521;28;21550;-73
2022/01/31 11:53:39;;;;;;;1.98;0.40;;;25.50;99.90;;;;;;5063470;28;20383;-73
2022/01/31 11:56:27;;;;;;;1.60;0.57;;;25.50;99.90;;;;;;5063293;28;20024;-74
2022/01/31 11:59:13;;;;;;;3.20;0.40;;;25.50;99.90;;;;;;5062351;28;20402;-74
2022/01/31 12:01:43;;;;;;;1.20;0.30;;;25.50;99.90;;;;;;5060874;28;20432;-75
2022/01/31 12:04:13;;;;;;;2.92;0.57;;;25.40;99.90;;;;;;5065730;28;20138;-75
2022/01/31 12:06:40;;;;;;;1.00;0.30;;;25.30;99.90;;;;;;5061239;28;20029;-76
2022/01/31 12:09:16;;;;;;;1.20;0.43;;;25.30;99.90;;;;;;5066834;28;20480;-78
2022/01/31 12:11:57;;;;;;;;;;;25.30;99.90;;;;;;5068046;28;20089;-75
2022/01/31 12:14:27;;;;;;;0.32;0.30;;;25.30;99.90;;;;;;5059497;28;19958;-77
2022/01/31 12:18:23;;;;;;;1.42;0.32;;;25.30;99.90;;;;;;5060888;28;20116;-75
2022/01/31 12:24:00;;;;;;;1.15;0.40;;;25.20;99.90;;;;;;5066208;28;20027;-74
2022/01/31 12:26:33;;;;;;;0.80;0.50;;;25.20;99.90;;;;;;5064537;28;20029;-76
2022/01/31 12:29:12;;;;;;;3.25;0.52;;;25.10;99.90;;;;;;5065201;28;20055;-73
2022/01/31 12:34:40;;;;;;;0.85;0.40;;;25.10;99.90;;;;;;5054873;28;20401;-76
2022/01/31 12:40:33;;;;;;;0.65;0.60;;;25.00;99.90;;;;;;5059620;28;20129;-75
2022/01/31 12:43:13;;;;;;;0.83;0.40;;;25.00;99.90;;;;;;5055785;28;20169;-77
2022/01/31 12:45:42;;;;;;;1.52;0.50;;;24.90;99.90;;;;;;5059452;28;20269;-74
2022/01/31 12:48:10;;;;;;;2.60;0.40;;;25.00;99.90;;;;;;5062086;28;20034;-75
2022/01/31 12:50:49;;;;;;;1.25;1.10;;;24.90;99.90;;;;;;5055673;28;20025;-75
2022/01/31 12:53:40;;;;;;;1.00;0.35;;;24.90;99.90;;;;;;5051235;28;20483;-75
2022/01/31 12:56:26;;;;;;;1.77;1.35;;;24.90;99.90;;;;;;5054466;28;20027;-77
2022/01/31 12:59:17;;;;;;;1.30;0.85;;;24.80;99.90;;;;;;5063641;28;20044;-76
2022/01/31 13:01:51;;;;;;;1.70;0.70;;;24.80;99.90;;;;;;5054683;28;20024;-76
2022/01/31 13:04:28;;;;;;;1.63;0.60;;;24.70;99.90;;;;;;5052770;28;20024;-77
2022/01/31 13:07:15;;;;;;;1.15;0.30;;;24.70;99.90;;;;;;5052242;28;20127;-76
2022/01/31 13:09:43;;;;;;;1.67;0.57;;;24.70;99.90;;;;;;5055944;28;20029;-74
2022/01/31 13:12:15;;;;;;;1.60;0.47;;;24.70;99.90;;;;;;5052236;28;20122;-75
2022/01/31 13:14:48;;;;;;;0.73;0.60;;;24.70;99.90;;;;;;5053507;28;20062;-74
2022/01/31 13:17:18;;;;;;;1.33;0.50;;;24.70;99.90;;;;;;5054063;28;20109;-75
2022/01/31 13:20:00;;;;;;;0.77;0.50;;;24.70;99.90;;;;;;5057746;28;20028;-75
2022/01/31 13:22:36;;;;;;;2.13;0.70;;;24.80;99.90;;;;;;5065011;28;20502;-76
2022/01/31 13:25:12;;;;;;;1.48;0.60;;;24.70;99.90;;;;;;5065285;28;20032;-76
2022/01/31 13:27:59;;;;;;;2.65;0.70;;;24.80;99.90;;;;;;5063725;28;20498;-77
2022/01/31 13:30:30;;;;;;;1.35;0.40;;;24.80;99.90;;;;;;5058883;28;20020;-77
2022/01/31 13:33:01;;;;;;;3.53;0.40;;;24.90;99.90;;;;;;5062807;28;20044;-76
2022/01/31 13:35:31;;;;;;;0.63;0.40;;;24.90;99.90;;;;;;5061460;28;20123;-76